createdAt,value
2018-03-26T00:01:56.514Z,94786
2018-03-26T00:07:25.510Z,94780
2018-03-26T00:12:53.665Z,94775
2018-03-26T00:18:22.580Z,94770
2018-03-26T00:23:52.665Z,94779
2018-03-26T00:29:22.518Z,94776
2018-03-26T00:34:51.459Z,94777
2018-03-26T00:40:19.554Z,94797
2018-03-26T00:45:47.764Z,94804
2018-03-26T00:51:15.888Z,94803
2018-03-26T00:56:44.795Z,94808
2018-03-26T01:02:13.358Z,94805
2018-03-26T01:07:42.258Z,94805
2018-03-26T01:13:10.400Z,94806
2018-03-26T01:18:38.537Z,94803
2018-03-26T01:24:07.443Z,94808
2018-03-26T01:29:35.600Z,94816
2018-03-26T01:35:04.486Z,94815
2018-03-26T01:40:32.786Z,94812
2018-03-26T01:46:00.931Z,94792
2018-03-26T01:51:30.024Z,94803
2018-03-26T01:56:58.177Z,94807
2018-03-26T02:02:26.315Z,94807
2018-03-26T02:07:54.465Z,94813
2018-03-26T02:13:22.713Z,94814
2018-03-26T02:18:50.933Z,94812
2018-03-26T02:24:21.806Z,94819
2018-03-26T02:29:50.752Z,94808
2018-03-26T02:35:18.909Z,94816
2018-03-26T02:40:47.168Z,94821
2018-03-26T02:46:15.318Z,94818
2018-03-26T02:51:43.469Z,94821
2018-03-26T02:57:12.563Z,94831
2018-03-26T03:02:41.702Z,94834
2018-03-26T03:08:10.594Z,94838
2018-03-26T03:13:38.788Z,94842
2018-03-26T03:19:06.928Z,94851
2018-03-26T03:24:35.084Z,94848
2018-03-26T03:30:03.515Z,94842
2018-03-26T03:35:33.793Z,94855
2018-03-26T03:41:02.679Z,94853
2018-03-26T03:46:32.789Z,94859
2018-03-26T03:52:00.914Z,94874
2018-03-26T03:57:29.804Z,94864
2018-03-26T04:02:57.963Z,94872
2018-03-26T04:08:26.099Z,94858
2018-03-26T04:13:54.259Z,94859
2018-03-26T04:19:22.457Z,94849
2018-03-26T04:24:52.400Z,94858
2018-03-26T04:30:21.973Z,94861
2018-03-26T04:35:50.387Z,94860
2018-03-26T04:41:18.545Z,94867
2018-03-26T04:46:46.672Z,94869
2018-03-26T04:52:14.806Z,94884
2018-03-26T04:57:43.145Z,94883
2018-03-26T05:03:12.082Z,94887
2018-03-26T05:08:40.997Z,94884
2018-03-26T05:14:09.144Z,94894
2018-03-26T05:19:38.298Z,94897
2018-03-26T05:25:07.207Z,94914
2018-03-26T05:30:35.351Z,94920
2018-03-26T05:36:04.266Z,94919
2018-03-26T05:41:32.402Z,94935
2018-03-26T05:47:00.554Z,94940
2018-03-26T05:52:28.797Z,94945
2018-03-26T05:57:56.942Z,94947
2018-03-26T06:03:25.134Z,94965
2018-03-26T06:08:53.281Z,94955
2018-03-26T06:14:21.468Z,94967
2018-03-26T06:19:49.620Z,94973
2018-03-26T06:25:18.561Z,94972
2018-03-26T06:30:46.698Z,94972
2018-03-26T06:42:26.234Z,94978
2018-03-26T06:47:54.382Z,94994
2018-03-26T06:53:23.298Z,94990
2018-03-26T06:58:51.446Z,94999
2018-03-26T07:04:20.351Z,94993
2018-03-26T07:09:48.519Z,94996
2018-03-26T07:15:16.697Z,94987
2018-03-26T07:20:44.859Z,95000
2018-03-26T07:26:12.989Z,95004
2018-03-26T07:31:41.130Z,95017
2018-03-26T07:37:09.269Z,95023
2018-03-26T07:42:37.422Z,95026
2018-03-26T07:48:06.342Z,95019
2018-03-26T07:53:34.488Z,95022
2018-03-26T07:59:02.633Z,95040
2018-03-26T08:04:31.333Z,95048
2018-03-26T08:10:00.239Z,95059
2018-03-26T08:15:28.378Z,95060
2018-03-26T08:20:56.521Z,95061
2018-03-26T08:26:24.663Z,95073
2018-03-26T08:31:52.784Z,95081
2018-03-26T08:37:20.939Z,95084
2018-03-26T08:42:49.093Z,95088
2018-03-26T08:48:18.013Z,95097
2018-03-26T08:53:46.964Z,95102
2018-03-26T08:59:15.890Z,95103
2018-03-26T09:04:44.799Z,95107
2018-03-26T09:10:12.953Z,95112
2018-03-26T09:15:41.862Z,95119
2018-03-26T09:21:10.005Z,95124
2018-03-26T09:26:38.902Z,95127
2018-03-26T09:32:07.029Z,95130
2018-03-26T09:37:37.135Z,95119
2018-03-26T09:43:06.029Z,95136
2018-03-26T09:48:34.166Z,95123
2018-03-26T09:54:02.300Z,95133
2018-03-26T09:59:30.459Z,95135
2018-03-26T10:04:58.603Z,95133
2018-03-26T10:10:26.762Z,95144
2018-03-26T10:15:55.673Z,95155
2018-03-26T10:21:23.819Z,95143
2018-03-26T10:26:52.718Z,95147
2018-03-26T10:32:20.904Z,95147
2018-03-26T10:37:49.072Z,95149
2018-03-26T10:43:17.305Z,95158
2018-03-26T10:48:46.234Z,95155
2018-03-26T10:54:16.416Z,95161
2018-03-26T10:59:45.367Z,95167
2018-03-26T11:05:13.528Z,95164
2018-03-26T11:10:41.658Z,95160
2018-03-26T11:16:09.800Z,95161
2018-03-26T11:21:38.060Z,95159
2018-03-26T11:27:06.222Z,95152
2018-03-26T11:32:34.386Z,95150
2018-03-26T11:38:03.303Z,95141
2018-03-26T11:43:31.448Z,95148
2018-03-26T11:49:00.350Z,95141
2018-03-26T11:54:28.499Z,95147
2018-03-26T11:59:57.406Z,95148
2018-03-26T12:05:25.564Z,95153
2018-03-26T12:10:53.730Z,95150
2018-03-26T12:16:21.907Z,95147
2018-03-26T12:21:51.009Z,95146
2018-03-26T12:27:19.181Z,95149
2018-03-26T12:32:47.327Z,95149
2018-03-26T12:38:15.487Z,95157
2018-03-26T12:43:43.678Z,95155
2018-03-26T12:49:11.877Z,95161
2018-03-26T12:54:40.041Z,95155
2018-03-26T13:00:08.208Z,95157
2018-03-26T13:05:38.040Z,95162
2018-03-26T13:11:06.522Z,95165
2018-03-26T13:16:34.673Z,95167
2018-03-26T13:22:03.609Z,95173
2018-03-26T13:27:32.519Z,95175
2018-03-26T13:33:00.662Z,95180
2018-03-26T13:38:29.576Z,95184
2018-03-26T13:43:57.733Z,95191
2018-03-26T13:49:26.639Z,95190
2018-03-26T13:54:54.795Z,95203
2018-03-26T14:00:22.926Z,95203
2018-03-26T14:05:51.059Z,95212
2018-03-26T14:11:37.126Z,95210
2018-03-26T14:17:23.156Z,95216
2018-03-26T14:22:51.313Z,95221
2018-03-26T14:28:19.446Z,95210
2018-03-26T14:33:48.402Z,95218
2018-03-26T14:39:16.545Z,95219
2018-03-26T14:44:44.712Z,95227
2018-03-26T14:50:14.494Z,95228
2018-03-26T14:55:42.666Z,95228
2018-03-26T15:01:10.811Z,95232
2018-03-26T15:06:39.731Z,95229
2018-03-26T15:12:07.880Z,95228
2018-03-26T15:17:36.786Z,95239
2018-03-26T15:23:04.929Z,95236
2018-03-26T15:28:33.818Z,95230
2018-03-26T15:34:01.960Z,95230
2018-03-26T15:39:30.100Z,95232
2018-03-26T15:44:59.011Z,95239
2018-03-26T15:50:27.165Z,95248
2018-03-26T15:55:56.079Z,95247
2018-03-26T16:01:24.275Z,95262
2018-03-26T16:06:53.092Z,95266
2018-03-26T16:12:21.227Z,95267
2018-03-26T16:17:49.356Z,95275
2018-03-26T16:23:17.534Z,95270
2018-03-26T16:28:45.700Z,95272
2018-03-26T16:34:13.863Z,95275
2018-03-26T16:39:42.026Z,95277
2018-03-26T16:45:10.149Z,95283
2018-03-26T16:50:38.289Z,95285
2018-03-26T16:56:06.428Z,95299
2018-03-26T17:01:35.343Z,95303
2018-03-26T17:07:03.522Z,95301
2018-03-26T17:12:31.659Z,95296
2018-03-26T17:18:00.742Z,95313
2018-03-26T17:23:29.731Z,95319
2018-03-26T17:28:58.037Z,95330
2018-03-26T17:34:26.219Z,95337
2018-03-26T17:39:54.339Z,95370
2018-03-26T17:45:22.493Z,95373
2018-03-26T17:50:51.383Z,95375
2018-03-26T17:56:19.675Z,95394
2018-03-26T18:01:47.826Z,95383
2018-03-26T18:07:16.196Z,95377
2018-03-26T18:12:44.457Z,95374
2018-03-26T18:18:14.492Z,95372
2018-03-26T18:23:43.484Z,95384
2018-03-26T18:29:11.647Z,95383
2018-03-26T18:34:39.788Z,95384
2018-03-26T18:40:12.580Z,95391
2018-03-26T18:45:41.797Z,95388
2018-03-26T18:51:10.004Z,95396
2018-03-26T18:56:38.166Z,95402
2018-03-26T19:02:07.088Z,95398
2018-03-26T19:07:35.989Z,95401
2018-03-26T19:13:04.150Z,95411
2018-03-26T19:18:35.031Z,95414
2018-03-26T19:24:08.622Z,95413
2018-03-26T19:29:37.728Z,95434
2018-03-26T19:35:06.642Z,95434
2018-03-26T19:40:35.699Z,95441
2018-03-26T19:46:05.578Z,95442
2018-03-26T19:51:33.737Z,95442
2018-03-26T19:57:01.912Z,95438
2018-03-26T20:02:30.841Z,95447
2018-03-26T20:08:09.714Z,95449
2018-03-26T20:13:38.623Z,95454
2018-03-26T20:19:06.764Z,95449
2018-03-26T20:24:35.657Z,95453
2018-03-26T20:30:03.893Z,95442
2018-03-26T20:35:32.041Z,95460
2018-03-26T20:41:00.962Z,95469
2018-03-26T20:46:29.095Z,95447
2018-03-26T20:51:57.253Z,95452
2018-03-26T20:57:25.387Z,95448
2018-03-26T21:02:53.530Z,95445
2018-03-26T21:08:21.684Z,95450
2018-03-26T21:13:50.586Z,95463
2018-03-26T21:19:18.747Z,95462
2018-03-26T21:24:46.885Z,95464
2018-03-26T21:30:15.043Z,95460
2018-03-26T21:35:43.200Z,95452
2018-03-26T21:41:12.100Z,95454
2018-03-26T21:46:40.254Z,95453
2018-03-26T21:52:11.126Z,95450
2018-03-26T21:57:39.275Z,95453
2018-03-26T22:03:07.408Z,95452
2018-03-26T22:08:36.313Z,95454
2018-03-26T22:14:05.223Z,95451
2018-03-26T22:19:33.368Z,95451
2018-03-26T22:25:02.266Z,95458
2018-03-26T22:30:30.399Z,95459
2018-03-26T22:35:58.539Z,95451
2018-03-26T22:41:26.685Z,95465
2018-03-26T22:46:54.829Z,95463
2018-03-26T22:52:23.020Z,95460
2018-03-26T22:57:51.908Z,95454
2018-03-26T23:03:20.052Z,95459
2018-03-26T23:08:48.962Z,95463
2018-03-26T23:14:17.112Z,95464
2018-03-26T23:19:46.027Z,95459
2018-03-26T23:25:14.207Z,95468
2018-03-26T23:30:42.363Z,95465
2018-03-26T23:36:10.512Z,95454
2018-03-26T23:41:39.414Z,95467
2018-03-26T23:47:07.558Z,95463
2018-03-26T23:52:35.696Z,95460
2018-03-26T23:58:04.612Z,95460
